KGYL

Glencoe Municipal Airport

Glencoe, Minnesota, USA
METAR KGYL 230815Z AUTO 08005KT 2SM -SN SCT009 BKN017 OVC024 M03/M03 A3006 RMK AO2 T10301030
Observed Flight Rules
Feb-23 @ 08:15 UTC (9 minutes ago) Instrument Flight Rules
Wind Visibility Clouds Conditions
80° at 5 knots 2 miles
  • Scattered at 900' AGL
  • Broken at 1,700' AGL
  • Overcast at 2,400' AGL
  • Light Snow
Temperatures Readings
Current -3°C / 27°F
Dewpoint -3°C / 27°F
Humidity 100%
Altimeter 30.06" Hg
Pressure 1018 hPa
Elevation 302
METAR KGYL 230815Z AUTO 08005KT 2SM -SN SCT009 BKN017 OVC024 M03/M03 A3006 RMK AO2 T10301030
Observed Flight Rules
Feb-23 @ 08:15 UTC
(9 minutes ago)
IFR
Wind Visibility
80° at 5 knots 2 miles
Clouds
  • Scattered at 900' AGL
  • Broken at 1,700' AGL
  • Overcast at 2,400' AGL
Conditions
  • Light Snow
Temperature Dewpoint
-3°C / 27°F -3°C / 27°F
Humidity Altimeter Pressure
100% 30.06" Hg 1018 hPa